createdAt,value
2022-10-08T00:00:04.305Z,9.300000
2022-10-08T00:01:00.970Z,9.300000
2022-10-08T00:02:01.137Z,9.300000
2022-10-08T00:03:00.992Z,9.300000
2022-10-08T00:04:01.306Z,9.300000
2022-10-08T00:05:07.541Z,9.300000
2022-10-08T00:06:01.074Z,9.300000
2022-10-08T00:07:01.039Z,9.300000
2022-10-08T00:08:01.129Z,9.400000
2022-10-08T00:09:01.054Z,9.400000
2022-10-08T00:10:04.304Z,9.400000
2022-10-08T00:11:01.041Z,9.500000
2022-10-08T00:12:01.128Z,9.500000
2022-10-08T00:13:01.051Z,9.500000
2022-10-08T00:14:01.150Z,9.600000
2022-10-08T00:15:03.764Z,9.600000
2022-10-08T00:16:01.228Z,9.600000
2022-10-08T00:17:01.092Z,9.600000
2022-10-08T00:18:01.169Z,9.700000
2022-10-08T00:19:01.151Z,9.700000
2022-10-08T00:20:09.403Z,9.700000
2022-10-08T00:21:01.138Z,9.600000
2022-10-08T00:22:01.212Z,9.600000
2022-10-08T00:23:01.133Z,9.600000
2022-10-08T00:24:01.225Z,9.600000
2022-10-08T00:25:05.205Z,9.600000
2022-10-08T00:26:01.231Z,9.600000
2022-10-08T00:27:01.176Z,9.600000
2022-10-08T00:28:00.338Z,9.600000
2022-10-08T00:29:00.173Z,9.600000
2022-10-08T00:30:03.504Z,9.600000
2022-10-08T00:31:00.422Z,9.500000
2022-10-08T00:32:00.354Z,9.500000
2022-10-08T00:33:00.225Z,9.500000
2022-10-08T00:34:00.298Z,9.500000
2022-10-08T00:35:02.948Z,9.500000
2022-10-08T00:36:00.296Z,9.500000
2022-10-08T00:37:00.239Z,9.400000
2022-10-08T00:38:00.296Z,9.400000
2022-10-08T00:39:00.239Z,9.400000
2022-10-08T00:40:03.472Z,9.400000
2022-10-08T00:41:00.255Z,9.300000
2022-10-08T00:42:00.326Z,9.300000
2022-10-08T00:43:00.265Z,9.300000
2022-10-08T00:44:00.350Z,9.300000
2022-10-08T00:45:03.685Z,9.300000
2022-10-08T00:46:00.436Z,9.300000
2022-10-08T00:47:00.309Z,9.300000
2022-10-08T00:48:00.383Z,9.300000
2022-10-08T00:49:00.309Z,9.300000
2022-10-08T00:50:03.288Z,9.300000
2022-10-08T00:51:00.332Z,9.200000
2022-10-08T00:52:00.425Z,9.200000
2022-10-08T00:53:00.355Z,9.200000
2022-10-08T00:54:00.423Z,9.200000
2022-10-08T00:55:03.107Z,9.200000
2022-10-08T00:56:00.549Z,9.200000
2022-10-08T00:57:00.381Z,9.200000
2022-10-08T00:58:00.480Z,9.200000
2022-10-08T00:59:00.389Z,9.400000
2022-10-08T01:00:04.670Z,9.400000
2022-10-08T01:01:00.479Z,9.400000
2022-10-08T01:02:00.533Z,9.400000
2022-10-08T01:03:00.423Z,9.400000
2022-10-08T01:04:00.525Z,9.400000
2022-10-08T01:05:03.280Z,9.400000
2022-10-08T01:06:00.525Z,9.400000
2022-10-08T01:07:00.453Z,9.300000
2022-10-08T01:08:00.544Z,9.300000
2022-10-08T01:09:00.477Z,9.300000
2022-10-08T01:10:03.678Z,9.300000
2022-10-08T01:11:00.480Z,9.200000
2022-10-08T01:12:00.588Z,9.200000
2022-10-08T01:13:00.493Z,9.200000
2022-10-08T01:14:00.565Z,9.100000
2022-10-08T01:15:03.294Z,9.100000
2022-10-08T01:16:00.670Z,9.100000
2022-10-08T01:17:00.528Z,9.100000
2022-10-08T01:18:00.610Z,9.100000
2022-10-08T01:19:00.533Z,9.000000
2022-10-08T01:20:03.530Z,9.000000
2022-10-08T01:21:00.563Z,9.000000
2022-10-08T01:22:00.648Z,9.000000
2022-10-08T01:23:00.568Z,9.000000
2022-10-08T01:24:00.655Z,8.900000
2022-10-08T01:25:03.262Z,8.900000
2022-10-08T01:26:00.645Z,8.900000
2022-10-08T01:27:00.604Z,8.900000
2022-10-08T01:28:00.946Z,8.900000
2022-10-08T01:29:00.609Z,8.900000
2022-10-08T01:30:05.286Z,8.800000
2022-10-08T01:31:00.638Z,8.800000
2022-10-08T01:32:00.759Z,8.800000
2022-10-08T01:33:00.646Z,8.800000
2022-10-08T01:34:00.757Z,8.800000
2022-10-08T01:35:03.421Z,8.800000
2022-10-08T01:36:00.737Z,8.800000
2022-10-08T01:37:00.670Z,8.800000
2022-10-08T01:38:00.748Z,8.800000
2022-10-08T01:39:00.696Z,8.700000
2022-10-08T01:40:04.316Z,8.700000
2022-10-08T01:41:00.703Z,8.700000
2022-10-08T01:42:00.784Z,8.700000
2022-10-08T01:43:00.726Z,8.700000
2022-10-08T01:44:00.815Z,8.700000
2022-10-08T01:45:03.490Z,8.700000
2022-10-08T01:46:00.929Z,8.700000
2022-10-08T01:47:00.753Z,8.700000
2022-10-08T01:48:00.837Z,8.700000
2022-10-08T01:49:00.760Z,8.700000
2022-10-08T01:50:04.074Z,8.700000
2022-10-08T01:51:00.807Z,8.700000
2022-10-08T01:52:00.870Z,8.700000
2022-10-08T01:53:00.784Z,8.700000
2022-10-08T01:54:00.861Z,8.700000
2022-10-08T01:55:03.516Z,8.700000
2022-10-08T01:56:00.923Z,8.700000
2022-10-08T01:57:00.827Z,8.700000
2022-10-08T01:58:01.018Z,8.700000
2022-10-08T01:59:00.820Z,8.700000
2022-10-08T02:00:05.109Z,8.600000
2022-10-08T02:01:00.911Z,8.600000
2022-10-08T02:02:00.990Z,8.600000
2022-10-08T02:03:00.899Z,8.600000
2022-10-08T02:04:00.978Z,8.600000
2022-10-08T02:05:03.759Z,8.600000
2022-10-08T02:06:00.961Z,8.600000
2022-10-08T02:07:00.906Z,8.500000
2022-10-08T02:08:00.970Z,8.500000
2022-10-08T02:09:00.925Z,8.500000
2022-10-08T02:10:04.009Z,8.500000
2022-10-08T02:11:00.937Z,8.500000
2022-10-08T02:12:01.017Z,8.500000
2022-10-08T02:13:00.941Z,8.500000
2022-10-08T02:14:01.033Z,8.500000
2022-10-08T02:15:03.691Z,8.400000
2022-10-08T02:16:01.173Z,8.400000
2022-10-08T02:17:00.966Z,8.400000
2022-10-08T02:18:01.043Z,8.400000
2022-10-08T02:19:00.982Z,8.400000
2022-10-08T02:20:05.409Z,8.400000
2022-10-08T02:21:01.009Z,8.400000
2022-10-08T02:22:01.107Z,8.400000
2022-10-08T02:23:01.022Z,8.400000
2022-10-08T02:24:01.111Z,8.400000
2022-10-08T02:25:03.867Z,8.400000
2022-10-08T02:26:01.132Z,8.400000
2022-10-08T02:27:01.079Z,8.400000
2022-10-08T02:28:01.218Z,8.400000
2022-10-08T02:29:01.059Z,8.400000
2022-10-08T02:30:04.289Z,8.500000
2022-10-08T02:31:01.081Z,8.500000
2022-10-08T02:32:01.231Z,8.500000
2022-10-08T02:33:01.108Z,8.600000
2022-10-08T02:34:01.181Z,8.600000
2022-10-08T02:35:04.655Z,8.600000
2022-10-08T02:36:01.202Z,8.600000
2022-10-08T02:37:01.127Z,8.600000
2022-10-08T02:38:01.209Z,8.600000
2022-10-08T02:39:01.152Z,8.600000
2022-10-08T02:40:05.273Z,8.500000
2022-10-08T02:41:01.158Z,8.500000
2022-10-08T02:42:01.247Z,8.500000
2022-10-08T02:43:01.170Z,8.400000
2022-10-08T02:44:00.247Z,8.400000
2022-10-08T02:45:03.136Z,8.400000
2022-10-08T02:46:00.389Z,8.400000
2022-10-08T02:47:00.190Z,8.400000
2022-10-08T02:48:00.276Z,8.300000
2022-10-08T02:49:00.200Z,8.300000
2022-10-08T02:50:03.341Z,8.300000
2022-10-08T02:51:00.231Z,8.300000
2022-10-08T02:52:00.328Z,8.300000
2022-10-08T02:53:00.233Z,8.300000
2022-10-08T02:54:00.314Z,8.300000
2022-10-08T02:55:03.071Z,8.200000
2022-10-08T02:56:00.330Z,8.200000
2022-10-08T02:57:00.277Z,8.200000
2022-10-08T02:58:00.366Z,8.100000
2022-10-08T02:59:00.282Z,8.100000
2022-10-08T03:00:03.443Z,8.000000
2022-10-08T03:01:00.363Z,8.000000
2022-10-08T03:02:00.678Z,8.000000
2022-10-08T03:03:00.331Z,8.000000
2022-10-08T03:04:00.433Z,8.000000
2022-10-08T03:05:03.076Z,7.900000
2022-10-08T03:06:00.402Z,7.900000
2022-10-08T03:07:00.353Z,7.900000
2022-10-08T03:08:00.442Z,7.900000
2022-10-08T03:09:00.385Z,7.900000
2022-10-08T03:10:04.822Z,7.900000
2022-10-08T03:11:00.383Z,7.900000
2022-10-08T03:12:00.471Z,7.900000
2022-10-08T03:13:00.403Z,7.800000
2022-10-08T03:14:00.478Z,7.800000
2022-10-08T03:15:03.196Z,7.800000
2022-10-08T03:16:00.579Z,7.700000
2022-10-08T03:17:00.528Z,7.700000
2022-10-08T03:18:00.546Z,7.700000
2022-10-08T03:19:00.442Z,7.700000
2022-10-08T03:20:03.545Z,7.700000
2022-10-08T03:21:00.470Z,7.600000
2022-10-08T03:22:00.554Z,7.600000
2022-10-08T03:23:00.467Z,7.600000
2022-10-08T03:24:00.559Z,7.600000
2022-10-08T03:25:03.171Z,7.500000
2022-10-08T03:26:00.576Z,7.500000
2022-10-08T03:27:00.514Z,7.500000
2022-10-08T03:28:00.713Z,7.500000
2022-10-08T03:29:00.530Z,7.500000
2022-10-08T03:30:05.198Z,7.500000
2022-10-08T03:31:00.583Z,7.500000
2022-10-08T03:32:00.613Z,7.500000
2022-10-08T03:33:00.576Z,7.500000
2022-10-08T03:34:00.678Z,7.500000
2022-10-08T03:35:03.476Z,7.500000
2022-10-08T03:36:00.670Z,7.600000
2022-10-08T03:37:00.589Z,7.600000
2022-10-08T03:38:00.648Z,7.600000
2022-10-08T03:39:00.617Z,7.600000
2022-10-08T03:40:04.913Z,7.600000
2022-10-08T03:41:00.625Z,7.600000
2022-10-08T03:42:00.698Z,7.600000
2022-10-08T03:43:00.619Z,7.600000
2022-10-08T03:44:00.733Z,7.600000
2022-10-08T03:45:03.428Z,7.600000
2022-10-08T03:46:00.819Z,7.600000
2022-10-08T03:47:00.661Z,7.600000
2022-10-08T03:48:00.751Z,7.600000
2022-10-08T03:49:00.688Z,7.600000
2022-10-08T03:50:03.725Z,7.600000
2022-10-08T03:51:00.709Z,7.600000
2022-10-08T03:52:00.782Z,7.600000
2022-10-08T03:53:00.694Z,7.600000
2022-10-08T03:54:00.777Z,7.700000
2022-10-08T03:55:03.427Z,7.700000
2022-10-08T03:56:00.782Z,7.800000
2022-10-08T03:57:00.734Z,7.800000
2022-10-08T03:58:00.811Z,7.800000
2022-10-08T03:59:00.741Z,7.900000
2022-10-08T04:00:03.947Z,7.900000
2022-10-08T04:01:00.811Z,7.900000
2022-10-08T04:02:00.837Z,8.000000
2022-10-08T04:03:00.878Z,8.000000
2022-10-08T04:04:00.896Z,8.100000
2022-10-08T04:05:03.564Z,8.100000
2022-10-08T04:06:00.908Z,8.100000
2022-10-08T04:07:00.808Z,8.100000
2022-10-08T04:08:00.881Z,8.100000
2022-10-08T04:09:00.839Z,8.100000
2022-10-08T04:10:04.091Z,8.100000
2022-10-08T04:11:00.835Z,8.200000
2022-10-08T04:12:00.923Z,8.200000
2022-10-08T04:13:00.845Z,8.200000
2022-10-08T04:14:00.929Z,8.300000
2022-10-08T04:15:03.647Z,8.300000
2022-10-08T04:16:01.034Z,8.300000
2022-10-08T04:17:00.889Z,8.500000
2022-10-08T04:18:00.957Z,8.500000
2022-10-08T04:19:00.887Z,8.500000
2022-10-08T04:20:04.080Z,8.500000
2022-10-08T04:21:00.917Z,8.600000
2022-10-08T04:22:01.107Z,8.600000
2022-10-08T04:23:00.920Z,8.600000
2022-10-08T04:24:01.000Z,8.700000
2022-10-08T04:25:04.311Z,8.700000
2022-10-08T04:26:00.989Z,8.700000
2022-10-08T04:27:00.947Z,8.800000
2022-10-08T04:28:01.107Z,8.800000
2022-10-08T04:29:00.950Z,8.900000
2022-10-08T04:30:04.143Z,8.900000
2022-10-08T04:31:01.015Z,8.900000
2022-10-08T04:32:01.039Z,9.000000
2022-10-08T04:33:01.003Z,9.000000
2022-10-08T04:34:01.071Z,9.000000
2022-10-08T04:35:03.993Z,9.000000
2022-10-08T04:36:01.069Z,9.100000
2022-10-08T04:37:01.011Z,9.100000
2022-10-08T04:38:01.114Z,9.100000
2022-10-08T04:39:01.037Z,9.200000
2022-10-08T04:40:04.142Z,9.200000
2022-10-08T04:41:01.037Z,9.200000
2022-10-08T04:42:01.114Z,9.200000
2022-10-08T04:43:01.049Z,9.200000
2022-10-08T04:44:01.173Z,9.300000
2022-10-08T04:45:03.898Z,9.300000
2022-10-08T04:46:01.243Z,9.300000
2022-10-08T04:47:01.069Z,9.300000
2022-10-08T04:48:01.154Z,9.300000
2022-10-08T04:49:01.083Z,9.400000
2022-10-08T04:50:04.537Z,9.400000
2022-10-08T04:51:01.116Z,9.400000
2022-10-08T04:52:01.193Z,9.400000
2022-10-08T04:53:01.110Z,9.400000
2022-10-08T04:54:01.212Z,9.400000
2022-10-08T04:55:03.973Z,9.400000
2022-10-08T04:56:01.208Z,9.400000
2022-10-08T04:57:01.150Z,9.500000
2022-10-08T04:58:01.236Z,9.500000
2022-10-08T04:59:01.155Z,9.500000
2022-10-08T05:00:18.346Z,9.500000
2022-10-08T05:01:00.189Z,9.500000
2022-10-08T05:02:00.330Z,9.600000
2022-10-08T05:03:00.301Z,9.600000
2022-10-08T05:04:00.314Z,9.600000
2022-10-08T05:05:03.132Z,9.700000
2022-10-08T05:06:00.308Z,9.700000
2022-10-08T05:07:00.237Z,9.700000
2022-10-08T05:08:00.307Z,9.700000
2022-10-08T05:09:00.255Z,9.700000
2022-10-08T05:10:03.499Z,9.800000
2022-10-08T05:11:00.266Z,9.800000
2022-10-08T05:12:00.347Z,9.800000
2022-10-08T05:13:00.284Z,9.800000
2022-10-08T05:14:00.343Z,9.800000
2022-10-08T05:15:02.983Z,9.900000
2022-10-08T05:16:00.453Z,9.900000
2022-10-08T05:17:00.303Z,9.900000
2022-10-08T05:18:00.392Z,9.900000
2022-10-08T05:19:00.315Z,9.900000
2022-10-08T05:20:05.051Z,10.000000
2022-10-08T05:21:00.371Z,10.000000
2022-10-08T05:22:00.452Z,10.000000
2022-10-08T05:23:00.361Z,10.000000
2022-10-08T05:24:00.446Z,10.000000
2022-10-08T05:25:03.280Z,10.100000
2022-10-08T05:26:00.481Z,10.100000
2022-10-08T05:27:00.413Z,10.100000
2022-10-08T05:28:00.550Z,10.100000
2022-10-08T05:29:00.395Z,10.200000
2022-10-08T05:30:05.103Z,10.200000
2022-10-08T05:31:00.511Z,10.200000
2022-10-08T05:32:00.497Z,10.200000
2022-10-08T05:33:00.442Z,10.200000
2022-10-08T05:34:00.532Z,10.200000
2022-10-08T05:35:03.238Z,10.100000
2022-10-08T05:36:00.537Z,10.100000
2022-10-08T05:37:00.462Z,10.200000
2022-10-08T05:38:00.532Z,10.200000
2022-10-08T05:39:00.497Z,10.200000
2022-10-08T05:40:03.710Z,10.200000
2022-10-08T05:41:00.491Z,10.200000
2022-10-08T05:42:00.630Z,10.200000
2022-10-08T05:43:00.505Z,10.200000
2022-10-08T05:44:00.587Z,10.200000
2022-10-08T05:45:03.278Z,10.300000
2022-10-08T05:46:00.730Z,10.300000
2022-10-08T05:47:00.545Z,10.300000
2022-10-08T05:48:00.634Z,10.400000
2022-10-08T05:49:00.553Z,10.400000
2022-10-08T05:50:03.735Z,10.400000
2022-10-08T05:51:00.574Z,10.400000
2022-10-08T05:52:00.674Z,10.400000
2022-10-08T05:53:00.570Z,10.400000
2022-10-08T05:54:00.677Z,10.400000
2022-10-08T05:55:03.525Z,10.500000
2022-10-08T05:56:00.667Z,10.500000
2022-10-08T05:57:00.619Z,10.500000
2022-10-08T05:58:00.740Z,10.500000
2022-10-08T05:59:00.612Z,10.500000
2022-10-08T06:00:03.681Z,10.500000
2022-10-08T06:01:00.650Z,10.500000
2022-10-08T06:02:00.724Z,10.500000
2022-10-08T06:03:00.711Z,10.500000
2022-10-08T06:04:07.027Z,10.500000
2022-10-08T06:05:03.693Z,10.500000
2022-10-08T06:06:00.771Z,10.500000
2022-10-08T06:07:00.692Z,10.500000
2022-10-08T06:08:00.759Z,10.400000
2022-10-08T06:09:00.713Z,10.400000
2022-10-08T06:10:04.008Z,10.400000
2022-10-08T06:11:00.725Z,10.400000
2022-10-08T06:12:00.804Z,10.400000
2022-10-08T06:13:00.748Z,10.400000
2022-10-08T06:14:00.983Z,10.400000
2022-10-08T06:15:04.413Z,10.300000
2022-10-08T06:16:00.917Z,10.300000
2022-10-08T06:17:00.787Z,10.300000
2022-10-08T06:18:00.865Z,10.400000
2022-10-08T06:19:00.803Z,10.400000
2022-10-08T06:20:03.921Z,10.400000
2022-10-08T06:21:00.843Z,10.300000
2022-10-08T06:22:00.887Z,10.300000
2022-10-08T06:23:00.834Z,10.300000
2022-10-08T06:24:00.896Z,10.300000
2022-10-08T06:25:03.710Z,10.300000
2022-10-08T06:26:00.912Z,10.300000
2022-10-08T06:27:00.881Z,10.300000
2022-10-08T06:28:00.957Z,10.400000
2022-10-08T06:29:00.871Z,10.400000
2022-10-08T06:30:04.003Z,10.400000
2022-10-08T06:31:00.920Z,10.400000
2022-10-08T06:32:00.948Z,10.400000
2022-10-08T06:33:00.921Z,10.400000
2022-10-08T06:34:00.969Z,10.400000
2022-10-08T06:35:03.597Z,10.400000
2022-10-08T06:36:00.994Z,10.400000
2022-10-08T06:37:00.925Z,10.400000
2022-10-08T06:38:00.995Z,10.400000
2022-10-08T06:39:00.971Z,10.400000
2022-10-08T06:40:04.116Z,10.400000
2022-10-08T06:41:00.948Z,10.400000
2022-10-08T06:42:01.033Z,10.400000
2022-10-08T06:43:00.959Z,10.400000
2022-10-08T06:44:01.038Z,10.400000
2022-10-08T06:45:03.940Z,10.400000
2022-10-08T06:46:01.083Z,10.500000
2022-10-08T06:47:01.058Z,10.500000
2022-10-08T06:48:01.070Z,10.500000
2022-10-08T06:49:01.005Z,10.500000
2022-10-08T06:50:04.309Z,10.500000
2022-10-08T06:51:01.040Z,10.500000
2022-10-08T06:52:01.099Z,10.500000
2022-10-08T06:53:01.034Z,10.500000
2022-10-08T06:54:06.954Z,10.500000
2022-10-08T06:55:05.108Z,10.500000
2022-10-08T06:56:01.130Z,10.500000
2022-10-08T06:57:01.057Z,10.500000
2022-10-08T06:58:01.135Z,10.600000
2022-10-08T06:59:01.073Z,10.600000
2022-10-08T07:00:04.652Z,10.600000
2022-10-08T07:01:01.169Z,10.600000
2022-10-08T07:02:01.280Z,10.600000
2022-10-08T07:03:01.117Z,10.600000
2022-10-08T07:04:01.192Z,10.700000
2022-10-08T07:05:04.026Z,10.700000
2022-10-08T07:06:01.211Z,10.700000
2022-10-08T07:07:01.129Z,10.800000
2022-10-08T07:08:01.230Z,10.800000
2022-10-08T07:09:01.166Z,10.800000
2022-10-08T07:10:05.929Z,10.800000
2022-10-08T07:11:01.172Z,10.800000
2022-10-08T07:12:01.266Z,10.800000
2022-10-08T07:13:00.182Z,10.800000
2022-10-08T07:14:00.293Z,10.900000
2022-10-08T07:15:03.211Z,10.900000
2022-10-08T07:16:00.357Z,10.900000
2022-10-08T07:17:00.231Z,10.900000
2022-10-08T07:18:00.422Z,10.900000
2022-10-08T07:19:00.234Z,11.000000
2022-10-08T07:20:04.551Z,11.000000
2022-10-08T07:21:00.252Z,11.000000
2022-10-08T07:22:01.450Z,11.000000
2022-10-08T07:23:00.252Z,11.000000
2022-10-08T07:24:00.347Z,11.100000
2022-10-08T07:25:03.071Z,11.100000
2022-10-08T07:26:00.369Z,11.100000
2022-10-08T07:27:00.288Z,11.100000
2022-10-08T07:28:00.433Z,11.100000
2022-10-08T07:29:00.301Z,11.200000
2022-10-08T07:30:03.664Z,11.200000
2022-10-08T07:31:00.308Z,11.300000
2022-10-08T07:32:00.561Z,11.300000
2022-10-08T07:33:00.328Z,11.300000
2022-10-08T07:34:00.412Z,11.300000
2022-10-08T07:35:03.211Z,11.300000
2022-10-08T07:36:00.422Z,11.300000
2022-10-08T07:37:00.352Z,11.300000
2022-10-08T07:38:00.442Z,11.300000
2022-10-08T07:39:00.372Z,11.300000
2022-10-08T07:40:04.655Z,11.300000
2022-10-08T07:41:00.376Z,11.300000
2022-10-08T07:42:00.469Z,11.300000
2022-10-08T07:43:00.388Z,11.400000
2022-10-08T07:44:00.498Z,11.400000
2022-10-08T07:45:04.486Z,11.400000
2022-10-08T07:46:00.570Z,11.400000
2022-10-08T07:47:00.430Z,11.400000
2022-10-08T07:48:00.504Z,11.400000
2022-10-08T07:49:00.437Z,11.500000
2022-10-08T07:50:03.669Z,11.500000
2022-10-08T07:51:00.469Z,11.600000
2022-10-08T07:52:00.552Z,11.600000
2022-10-08T07:53:00.469Z,11.600000
2022-10-08T07:54:02.777Z,11.600000
2022-10-08T07:55:03.177Z,11.600000
2022-10-08T07:56:00.577Z,11.600000
2022-10-08T07:57:00.510Z,11.600000
2022-10-08T07:58:00.564Z,11.600000
2022-10-08T07:59:00.507Z,11.700000
2022-10-08T08:00:03.899Z,11.700000
2022-10-08T08:01:00.665Z,11.700000
2022-10-08T08:02:00.759Z,11.700000
2022-10-08T08:03:00.554Z,11.700000
2022-10-08T08:04:00.612Z,11.800000
2022-10-08T08:05:04.085Z,11.800000
2022-10-08T08:06:00.677Z,11.800000
2022-10-08T08:07:00.581Z,11.800000
2022-10-08T08:08:00.693Z,11.800000
2022-10-08T08:09:00.605Z,11.900000
2022-10-08T08:10:04.862Z,11.900000
2022-10-08T08:11:00.616Z,11.900000
2022-10-08T08:12:00.712Z,11.900000
2022-10-08T08:13:00.636Z,11.900000
2022-10-08T08:14:00.720Z,12.000000
2022-10-08T08:15:03.715Z,12.000000
2022-10-08T08:16:00.787Z,12.100000
2022-10-08T08:17:00.695Z,12.100000
2022-10-08T08:18:00.738Z,12.100000
2022-10-08T08:19:00.666Z,12.200000
2022-10-08T08:20:03.886Z,12.200000
2022-10-08T08:21:00.689Z,12.200000
2022-10-08T08:22:00.782Z,12.300000
2022-10-08T08:23:00.691Z,12.300000
2022-10-08T08:24:00.787Z,12.300000
2022-10-08T08:25:03.512Z,12.400000
2022-10-08T08:26:00.806Z,12.400000
2022-10-08T08:27:00.728Z,12.400000
2022-10-08T08:28:00.844Z,12.400000
2022-10-08T08:29:00.746Z,12.300000
2022-10-08T08:30:03.929Z,12.300000
2022-10-08T08:31:00.762Z,12.300000
2022-10-08T08:32:00.930Z,12.400000
2022-10-08T08:33:00.774Z,12.400000
2022-10-08T08:34:00.856Z,12.400000
2022-10-08T08:35:03.533Z,12.400000
2022-10-08T08:36:00.857Z,12.400000
2022-10-08T08:37:00.788Z,12.500000
2022-10-08T08:38:00.898Z,12.500000
2022-10-08T08:39:00.812Z,12.600000
2022-10-08T08:40:03.880Z,12.600000
2022-10-08T08:41:00.827Z,12.600000
2022-10-08T08:42:00.912Z,12.800000
2022-10-08T08:43:00.827Z,12.800000
2022-10-08T08:44:00.928Z,12.800000
2022-10-08T08:45:03.844Z,12.900000
2022-10-08T08:46:00.974Z,12.900000
2022-10-08T08:47:00.863Z,13.100000
2022-10-08T08:48:00.951Z,13.100000
2022-10-08T08:49:00.872Z,13.100000
2022-10-08T08:50:04.331Z,13.400000
2022-10-08T08:51:00.909Z,13.400000
2022-10-08T08:52:00.997Z,13.500000
2022-10-08T08:53:00.917Z,13.500000
2022-10-08T08:54:01.021Z,13.600000
2022-10-08T08:55:03.985Z,13.600000
2022-10-08T08:56:01.026Z,13.600000
2022-10-08T08:57:00.954Z,13.600000
2022-10-08T08:58:01.037Z,13.600000
2022-10-08T08:59:00.958Z,13.600000
2022-10-08T09:00:06.350Z,13.600000
2022-10-08T09:01:01.050Z,13.600000
2022-10-08T09:02:01.094Z,13.600000
2022-10-08T09:03:01.026Z,13.600000
2022-10-08T09:04:01.095Z,13.600000
2022-10-08T09:05:03.735Z,13.600000
2022-10-08T09:06:01.117Z,13.600000
2022-10-08T09:07:01.040Z,13.500000
2022-10-08T09:08:01.144Z,13.500000
2022-10-08T09:09:01.067Z,13.500000
2022-10-08T09:10:05.760Z,13.600000
2022-10-08T09:11:01.072Z,13.600000
2022-10-08T09:12:01.159Z,13.900000
2022-10-08T09:13:01.074Z,13.900000
2022-10-08T09:14:01.170Z,13.900000
2022-10-08T09:15:04.001Z,14.100000
2022-10-08T09:16:01.180Z,14.100000
2022-10-08T09:17:01.154Z,14.100000
2022-10-08T09:18:01.185Z,14.300000
2022-10-08T09:19:01.120Z,14.300000
2022-10-08T09:20:04.778Z,14.400000
2022-10-08T09:21:01.146Z,14.400000
2022-10-08T09:22:01.216Z,14.400000
2022-10-08T09:23:01.158Z,14.400000
2022-10-08T09:24:01.234Z,14.400000
2022-10-08T09:25:03.958Z,14.300000
2022-10-08T09:26:00.283Z,14.300000
2022-10-08T09:27:00.194Z,14.300000
2022-10-08T09:28:00.345Z,14.200000
2022-10-08T09:29:00.184Z,14.200000
2022-10-08T09:30:04.556Z,14.000000
2022-10-08T09:31:00.361Z,14.000000
2022-10-08T09:32:00.300Z,14.000000
2022-10-08T09:33:00.240Z,14.000000
2022-10-08T09:34:00.294Z,14.000000
2022-10-08T09:35:03.161Z,14.000000
2022-10-08T09:36:00.340Z,14.000000
2022-10-08T09:37:00.261Z,14.000000
2022-10-08T09:38:05.405Z,14.000000
2022-10-08T09:39:00.276Z,14.000000
2022-10-08T09:40:03.377Z,14.000000
2022-10-08T09:41:00.274Z,13.900000
2022-10-08T09:42:00.387Z,13.900000
2022-10-08T09:43:00.305Z,13.900000
2022-10-08T09:44:00.392Z,13.900000
2022-10-08T09:45:03.115Z,13.900000
2022-10-08T09:46:00.465Z,14.000000
2022-10-08T09:47:00.335Z,14.000000
2022-10-08T09:48:00.417Z,14.100000
2022-10-08T09:49:00.348Z,14.100000
2022-10-08T09:50:03.372Z,14.100000
2022-10-08T09:51:00.372Z,14.500000
2022-10-08T09:52:00.437Z,14.500000
2022-10-08T09:53:00.375Z,14.800000
2022-10-08T09:54:00.455Z,14.800000
2022-10-08T09:55:04.971Z,14.800000
2022-10-08T09:56:00.473Z,14.900000
2022-10-08T09:57:00.431Z,14.900000
2022-10-08T09:58:00.545Z,14.900000
2022-10-08T09:59:00.429Z,14.900000
2022-10-08T10:00:03.503Z,14.900000
2022-10-08T10:01:00.520Z,15.100000
2022-10-08T10:02:00.525Z,15.100000
2022-10-08T10:03:00.518Z,15.100000
2022-10-08T10:04:00.606Z,15.300000
2022-10-08T10:05:03.440Z,15.300000
2022-10-08T10:06:00.586Z,15.400000
2022-10-08T10:07:00.526Z,15.400000
2022-10-08T10:08:00.573Z,15.700000
2022-10-08T10:09:00.535Z,15.700000
2022-10-08T10:10:03.788Z,16.000000
2022-10-08T10:11:00.549Z,16.000000
2022-10-08T10:12:00.620Z,16.000000
2022-10-08T10:13:00.567Z,16.500000
2022-10-08T10:14:00.639Z,16.500000
2022-10-08T10:15:03.253Z,16.500000
2022-10-08T10:16:00.645Z,17.000000
2022-10-08T10:17:00.614Z,17.000000
2022-10-08T10:18:00.675Z,17.400000
2022-10-08T10:19:00.624Z,17.400000
2022-10-08T10:20:03.832Z,17.700000
2022-10-08T10:21:00.622Z,17.700000
2022-10-08T10:22:00.681Z,17.700000
2022-10-08T10:23:00.623Z,18.200000
2022-10-08T10:24:00.719Z,18.200000
2022-10-08T10:25:03.485Z,18.200000
2022-10-08T10:26:05.543Z,18.300000
2022-10-08T10:27:00.656Z,18.300000
2022-10-08T10:28:00.786Z,18.300000
2022-10-08T10:29:00.667Z,18.100000
2022-10-08T10:30:04.076Z,18.100000
2022-10-08T10:31:00.761Z,17.900000
2022-10-08T10:32:00.768Z,17.900000
2022-10-08T10:33:00.705Z,17.800000
2022-10-08T10:34:00.780Z,17.800000
2022-10-08T10:35:03.484Z,17.800000
2022-10-08T10:36:00.790Z,17.400000
2022-10-08T10:37:00.754Z,17.400000
2022-10-08T10:38:00.767Z,17.000000
2022-10-08T10:39:00.741Z,17.000000
2022-10-08T10:40:04.240Z,17.000000
2022-10-08T10:41:00.755Z,16.700000
2022-10-08T10:42:00.832Z,16.700000
2022-10-08T10:43:00.784Z,16.400000
2022-10-08T10:44:00.844Z,16.400000
2022-10-08T10:45:03.988Z,16.400000
2022-10-08T10:46:00.936Z,15.900000
2022-10-08T10:47:00.796Z,15.900000
2022-10-08T10:48:00.866Z,15.600000
2022-10-08T10:49:01.000Z,15.600000
2022-10-08T10:50:06.687Z,15.600000
2022-10-08T10:51:00.843Z,15.500000
2022-10-08T10:52:00.921Z,15.500000
2022-10-08T10:53:00.848Z,15.300000
2022-10-08T10:54:00.939Z,15.300000
2022-10-08T10:55:03.580Z,15.300000
2022-10-08T10:56:00.934Z,15.500000
2022-10-08T10:57:00.888Z,15.500000
2022-10-08T10:58:00.933Z,15.500000
2022-10-08T10:59:00.882Z,15.900000
2022-10-08T11:00:04.506Z,15.900000
2022-10-08T11:01:00.914Z,16.600000
2022-10-08T11:02:01.051Z,16.600000
2022-10-08T11:03:01.020Z,16.600000
2022-10-08T11:04:01.010Z,17.200000
2022-10-08T11:05:03.839Z,17.200000
2022-10-08T11:06:01.062Z,17.700000
2022-10-08T11:07:00.970Z,17.700000
2022-10-08T11:08:01.050Z,17.700000
2022-10-08T11:09:00.988Z,18.200000
2022-10-08T11:10:05.789Z,18.200000
2022-10-08T11:11:01.000Z,18.700000
2022-10-08T11:12:01.107Z,18.700000
2022-10-08T11:13:01.013Z,18.700000
2022-10-08T11:14:01.089Z,19.300000
2022-10-08T11:15:03.927Z,19.300000
2022-10-08T11:16:01.262Z,19.200000
2022-10-08T11:17:01.031Z,19.200000
2022-10-08T11:18:01.153Z,19.200000
2022-10-08T11:19:01.036Z,19.100000
2022-10-08T11:20:04.194Z,19.100000
2022-10-08T11:21:01.062Z,19.100000
2022-10-08T11:22:01.132Z,19.400000
2022-10-08T11:23:01.067Z,19.400000
2022-10-08T11:24:01.346Z,19.800000
2022-10-08T11:25:03.817Z,19.800000
2022-10-08T11:26:20.555Z,19.800000
2022-10-08T11:27:01.114Z,19.900000
2022-10-08T11:28:01.329Z,19.900000
2022-10-08T11:29:01.121Z,20.000000
2022-10-08T11:30:05.993Z,20.000000
2022-10-08T11:31:01.202Z,19.600000
2022-10-08T11:32:01.198Z,19.600000
2022-10-08T11:33:01.146Z,19.600000